• Join FlightAware (Why Join?)
  • Login
  • US Flag 
11:07AM EDT


 

Airport Tracker/Info


-or-


 

Live Flight TrackerFlight Track Log ✈ BJS542 ✈ 23-Aug-2013 ✈ MMPR / PVR - KLAX

Flight Track Log - Related Links

Times and Time Zones

All times are in EDT time to prevent confusion due to time zone crossing. See the BJS542 flight status page for this flight to view local times or setup timezone preferences in your user account.

Time Position Orientation Groundspeed Altitude Reporting Facility
EDT Latitude Longitude Course Direction KTS MPH feet Rate Location/Type
08:46PM 31.7756 -114.5553 322° Northwest 462 532 43,000  Level Los Angeles Center
08:47PM 31.8769 -114.6472 322° Northwest 460 529 43,000  Level Los Angeles Center
08:48PM 31.9783 -114.7386 323° Northwest 458 527 43,000  Level Los Angeles Center
08:49PM 32.0986 -114.8475 323° Northwest 454 522 43,000  Level Los Angeles Center
08:50PM 32.1992 -114.9389 322° Northwest 456 525 43,000  Level Los Angeles Center
08:51PM 32.3006 -115.0300 323° Northwest 457 526 43,000  Level Los Angeles Center
08:52PM 32.3817 -115.1444 310° West 462 532 43,000  Level Los Angeles Center
08:53PM 32.4522 -115.2800 302° West 444 511 43,000  Level Los Angeles Center
08:55PM 32.5436 -115.4169 308° West 448 516 43,000  Level Los Angeles Center
08:56PM 32.6681 -115.4572 345° North 479 551 43,000 -540 Level Los Angeles Center
08:57PM 32.8003 -115.4606 359° North 480 552 42,000 -1,380 Descending Los Angeles Center
08:58PM 32.8939 -115.5781 314° West 441 507 40,200 -1,680 Descending Los Angeles Center
08:59PM 32.8931 -115.7156 270° West 421 484 38,600 -1,800 Descending Los Angeles Center
09:00PM 32.8878 -115.8608 268° West 440 506 36,600 -2,160 Descending Los Angeles Center
09:01PM 32.9181 -116.0036 284° West 467 537 34,200 -2,280 Descending Los Angeles Center
09:02PM 32.9694 -116.1381 295° West 454 522 31,900 -2,520 Descending Los Angeles Center
09:03PM 33.0319 -116.2967 295° West 444 511 29,100 -2,520 Descending Los Angeles Center
09:04PM 33.0797 -116.4217 295° West 435 501 26,800 -2,160 Descending Los Angeles Center
09:05PM 33.1250 -116.5419 294° West 411 473 24,700 -1,380 Descending Los Angeles Center
09:06PM 33.1500 -116.6636 284° West 394 453 24,000 -1,140 Descending Los Angeles Center
09:07PM 33.1683 -116.8139 278° West 384 442 22,400 -2,100 Descending Los Angeles Center
09:08PM 33.1839 -116.9403 278° West 387 445 19,700 -2,400 Descending Los Angeles Center
09:09PM 33.1997 -117.0719 278° West 398 458 17,500 -2,100 Descending Los Angeles Center
09:10PM 33.2158 -117.2122 278° West 399 459 15,400 -2,100 Descending Los Angeles Center
09:11PM 33.2167 -117.2833 271° West 373 429 14,300 -2,040 Descending Southern California TRACON
09:12PM 33.2333 -117.4000 280° West 435 501 12,400 -1,140 Descending Southern California TRACON
09:13PM 33.2500 -117.5167 280° West 353 406 12,100 -300 Descending Southern California TRACON
09:14PM 33.2667 -117.6333 280° West 363 418 11,900 -480 Descending Southern California TRACON
09:14PM 33.3008 -117.6775 313° West 382 440 11,400 -1,080 Descending Los Angeles Center
09:15PM 33.3822 -117.7575 321° Northwest 384 442 10,100 -1,020 Descending Los Angeles Center
09:16PM 33.4672 -117.8406 321° Northwest 326 375 9,400 -1,020 Descending Los Angeles Center
09:17PM 33.5311 -117.9036 321° Northwest 300 345 8,000 -780 Descending Los Angeles Center
09:18PM 33.5919 -117.9639 320° Northwest 289 333 7,800 -540 Descending Los Angeles Center
09:19PM 33.6581 -118.0064 332° Northwest 273 314 6,900 -420 Descending Los Angeles Center
09:20PM 33.7264 -118.0333 342° North 262 302 7,000 -180 Climbing Los Angeles Center
09:21PM 33.8111 -118.0567 347° North 262 302 6,600 -960 Descending Los Angeles Center
09:22PM 33.8831 -118.0653 354° North 263 303 5,100 -780 Descending Los Angeles Center
09:24PM 33.9472 -118.0825 347° North 251 289 5,100 -180 Level Los Angeles Center
09:25PM 33.9633 -118.1508 286° West 222 255 4,800 -780 Descending Los Angeles Center
09:26PM 33.9536 -118.2194 260° West 211 243 3,600 -1,260 Descending Los Angeles Center
09:27PM 33.9486 -118.2886 265° West 188 216 2,200 -1,140 Descending Los Angeles Center
09:28PM 33.9422 -118.3408 262° West 171 197 1,300 -900 Descending Los Angeles Center
09:29PM 33.9378 -118.3864 263° West 152 175 400 -900 Descending Los Angeles Center
09:31PM 33.9333 -118.4000 296° West  Level FlightAware Approximate
09:38PM 33.9425 -118.4081 296° West  Level Estimated